createdAt,value
2018-01-26T00:00:06.726Z,87.8
2018-01-26T00:01:09.506Z,87.9
2018-01-26T00:02:11.997Z,87.8
2018-01-26T00:03:14.494Z,88
2018-01-26T00:04:16.995Z,88
2018-01-26T00:05:19.780Z,88
2018-01-26T00:06:22.278Z,87.9
2018-01-26T00:07:24.756Z,88
2018-01-26T00:08:27.260Z,88
2018-01-26T00:09:29.765Z,88
2018-01-26T00:10:32.830Z,87.9
2018-01-26T00:11:35.321Z,87.8
2018-01-26T00:12:37.821Z,87.9
2018-01-26T00:13:40.307Z,87.9
2018-01-26T00:14:42.827Z,88
2018-01-26T00:15:45.324Z,87.9
2018-01-26T00:16:48.097Z,87.7
2018-01-26T00:17:50.598Z,87.6
2018-01-26T00:18:53.093Z,87.7
2018-01-26T00:19:55.586Z,87.9
2018-01-26T00:20:58.083Z,88.1
2018-01-26T00:22:00.560Z,88
2018-01-26T00:23:03.342Z,88
2018-01-26T00:24:05.848Z,87.7
2018-01-26T00:25:08.332Z,87.8
2018-01-26T00:26:10.824Z,87.9
2018-01-26T00:27:13.623Z,88.1
2018-01-26T00:28:16.412Z,88.1
2018-01-26T00:29:18.905Z,87.9
2018-01-26T00:30:21.399Z,87.7
2018-01-26T00:31:23.903Z,87.9
2018-01-26T00:32:26.386Z,87.9
2018-01-26T00:33:28.886Z,87.9
2018-01-26T00:34:31.386Z,87.9
2018-01-26T00:35:33.875Z,87.8
2018-01-26T00:36:36.372Z,87.8
2018-01-26T00:37:38.868Z,87.9
2018-01-26T00:38:41.653Z,87.6
2018-01-26T00:39:44.448Z,87.6
2018-01-26T00:40:46.936Z,87.6
2018-01-26T00:41:49.429Z,87.5
2018-01-26T00:42:51.926Z,87.6
2018-01-26T00:43:54.422Z,87.7
2018-01-26T00:44:57.211Z,87.8
2018-01-26T00:46:00.009Z,87.7
2018-01-26T00:47:02.790Z,87.6
2018-01-26T00:48:05.284Z,87.6
2018-01-26T00:49:08.075Z,87.6
2018-01-26T00:50:10.564Z,87.7
2018-01-26T00:51:13.341Z,87.9
2018-01-26T00:52:15.835Z,87.9
2018-01-26T00:53:18.611Z,88
2018-01-26T00:54:21.107Z,87.9
2018-01-26T00:55:23.610Z,87.8
2018-01-26T00:56:26.113Z,87.8
2018-01-26T00:57:28.597Z,87.7
2018-01-26T00:58:31.088Z,87.6
2018-01-26T00:59:33.587Z,87.6
2018-01-26T01:00:36.081Z,87.6
2018-01-26T01:01:38.567Z,87.6
2018-01-26T01:02:41.065Z,87.6
2018-01-26T01:03:43.557Z,87.6
2018-01-26T01:04:46.059Z,87.6
2018-01-26T01:05:48.565Z,87.5
2018-01-26T01:06:51.044Z,87.3
2018-01-26T01:07:53.550Z,87.3
2018-01-26T01:08:56.040Z,87.4
2018-01-26T01:09:58.540Z,87.5
2018-01-26T01:11:01.040Z,87.5
2018-01-26T01:12:03.514Z,87.4
2018-01-26T01:13:06.010Z,87.2
2018-01-26T01:14:08.519Z,87.3
2018-01-26T01:15:11.058Z,87.4
2018-01-26T01:16:13.510Z,87.5
2018-01-26T01:17:16.006Z,87.4
2018-01-26T01:18:18.499Z,87.4
2018-01-26T01:19:21.309Z,87.2
2018-01-26T01:20:23.802Z,87.1
2018-01-26T01:21:26.286Z,87.2
2018-01-26T01:22:28.793Z,87.2
2018-01-26T01:23:31.291Z,87.3
2018-01-26T01:24:34.069Z,87.5
2018-01-26T01:25:36.562Z,87.5
2018-01-26T01:26:39.070Z,87.4
2018-01-26T01:27:41.565Z,87.3
2018-01-26T01:28:44.066Z,87.3
2018-01-26T01:29:46.554Z,87.4
2018-01-26T01:30:49.349Z,87.5
2018-01-26T01:31:51.832Z,87.7
2018-01-26T01:32:54.629Z,87.5
2018-01-26T01:33:57.122Z,87.6
2018-01-26T01:34:59.619Z,87.6
2018-01-26T01:36:02.403Z,87.6
2018-01-26T01:37:05.219Z,87.5
2018-01-26T01:38:07.700Z,87.3
2018-01-26T01:39:10.211Z,87.3
2018-01-26T01:40:12.700Z,87.2
2018-01-26T01:41:15.197Z,87.3
2018-01-26T01:42:17.993Z,87.3
2018-01-26T01:43:20.492Z,87.4
2018-01-26T01:44:22.991Z,87.3
2018-01-26T01:45:25.504Z,87.4
2018-01-26T01:46:27.983Z,87.4
2018-01-26T01:47:30.490Z,87.4
2018-01-26T01:48:32.979Z,87.4
2018-01-26T01:49:35.471Z,87.4
2018-01-26T01:50:38.258Z,87.4
2018-01-26T01:51:40.757Z,87.2
2018-01-26T01:52:43.237Z,87.3
2018-01-26T01:53:46.037Z,87.2
2018-01-26T01:54:48.529Z,87.2
2018-01-26T01:55:51.035Z,87.2
2018-01-26T01:56:53.532Z,87.1
2018-01-26T01:57:56.027Z,87.2
2018-01-26T01:58:58.515Z,87.2
2018-01-26T02:00:01.012Z,87.4
2018-01-26T02:01:03.509Z,87.3
2018-01-26T02:02:06.294Z,87
2018-01-26T02:03:08.793Z,86.9
2018-01-26T02:04:11.280Z,86.9
2018-01-26T02:05:13.773Z,86.9
2018-01-26T02:06:16.278Z,86.8
2018-01-26T02:07:18.770Z,86.8
2018-01-26T02:08:21.266Z,86.5
2018-01-26T02:09:23.761Z,86.6
2018-01-26T02:10:26.255Z,86.6
2018-01-26T02:11:29.069Z,86.6
2018-01-26T02:12:31.566Z,86.7
2018-01-26T02:13:34.055Z,86.7
2018-01-26T02:14:36.548Z,86.7
2018-01-26T02:15:39.616Z,86.6
2018-01-26T02:16:42.123Z,86.7
2018-01-26T02:17:44.921Z,86.6
2018-01-26T02:18:47.401Z,86.6
2018-01-26T02:19:49.896Z,86.7
2018-01-26T02:20:52.409Z,86.7
2018-01-26T02:21:55.195Z,86.7
2018-01-26T02:22:57.698Z,86.8
2018-01-26T02:24:00.185Z,86.7
2018-01-26T02:25:02.677Z,86.6
2018-01-26T02:26:05.177Z,86.5
2018-01-26T02:27:07.670Z,86.5
2018-01-26T02:28:10.174Z,86.5
2018-01-26T02:29:12.677Z,86.4
2018-01-26T02:30:15.150Z,86.5
2018-01-26T02:31:17.669Z,86.4
2018-01-26T02:32:20.162Z,86.4
2018-01-26T02:33:22.662Z,86.4
2018-01-26T02:34:25.457Z,86.3
2018-01-26T02:35:27.945Z,86.2
2018-01-26T02:36:30.438Z,86.4
2018-01-26T02:37:33.233Z,86.4
2018-01-26T02:38:35.724Z,86.3
2018-01-26T02:39:38.522Z,86.2
2018-01-26T02:40:41.013Z,85.9
2018-01-26T02:41:43.502Z,85.7
2018-01-26T02:42:46.005Z,85.9
2018-01-26T02:43:48.505Z,86
2018-01-26T02:44:50.987Z,86.1
2018-01-26T02:45:53.495Z,86.3
2018-01-26T02:46:55.989Z,86.3
2018-01-26T02:47:58.490Z,86.4
2018-01-26T02:49:00.980Z,86.5
2018-01-26T02:50:03.474Z,86.5
2018-01-26T02:51:06.548Z,86.3
2018-01-26T02:52:09.057Z,86.2
2018-01-26T02:53:11.546Z,86.4
2018-01-26T02:54:14.021Z,86.5
2018-01-26T02:55:17.146Z,86.6
2018-01-26T02:56:19.952Z,86.5
2018-01-26T02:57:22.446Z,86.6
2018-01-26T02:58:24.947Z,86.6
2018-01-26T02:59:27.728Z,86.7
2018-01-26T03:00:30.230Z,86.9
2018-01-26T03:01:32.738Z,86.8
2018-01-26T03:02:35.232Z,86.9
2018-01-26T03:03:37.715Z,86.9
2018-01-26T03:04:40.211Z,86.9
2018-01-26T03:05:42.707Z,86.9
2018-01-26T03:06:45.204Z,87
2018-01-26T03:07:47.701Z,86.9
2018-01-26T03:08:50.183Z,87
2018-01-26T03:09:52.677Z,87
2018-01-26T03:10:55.187Z,87
2018-01-26T03:11:57.677Z,87
2018-01-26T03:13:00.464Z,87.2
2018-01-26T03:14:02.994Z,87.1
2018-01-26T03:15:05.808Z,87.2
2018-01-26T03:16:08.601Z,87.3
2018-01-26T03:17:11.388Z,87.3
2018-01-26T03:18:13.864Z,87.3
2018-01-26T03:19:16.365Z,87.2
2018-01-26T03:20:18.861Z,87.2
2018-01-26T03:21:21.351Z,87
2018-01-26T03:22:23.854Z,86.9
2018-01-26T03:23:26.345Z,86.9
2018-01-26T03:24:28.843Z,87
2018-01-26T03:25:31.336Z,87.2
2018-01-26T03:26:33.829Z,87.3
2018-01-26T03:27:36.346Z,87.2
2018-01-26T03:28:39.144Z,87.3
2018-01-26T03:29:41.642Z,87.5
2018-01-26T03:30:44.448Z,87.4
2018-01-26T03:31:46.936Z,87.4
2018-01-26T03:32:49.438Z,87.4
2018-01-26T03:33:51.933Z,87.4
2018-01-26T03:34:54.420Z,87.4
2018-01-26T03:35:57.240Z,87.4
2018-01-26T03:36:59.727Z,87.3
2018-01-26T03:38:02.219Z,87.4
2018-01-26T03:39:04.718Z,87.4
2018-01-26T03:40:07.211Z,87.5
2018-01-26T03:41:09.984Z,87.4
2018-01-26T03:42:12.484Z,87.3
2018-01-26T03:43:14.975Z,87.2
2018-01-26T03:44:17.473Z,87.2
2018-01-26T03:45:19.973Z,87
2018-01-26T03:46:22.470Z,87.1
2018-01-26T03:47:24.967Z,87
2018-01-26T03:48:27.463Z,87
2018-01-26T03:49:29.954Z,87
2018-01-26T03:50:32.740Z,86.9
2018-01-26T03:51:35.524Z,87
2018-01-26T03:52:38.028Z,87
2018-01-26T03:53:40.808Z,87
2018-01-26T03:54:43.307Z,86.9
2018-01-26T03:55:45.800Z,86.9
2018-01-26T03:56:48.303Z,86.8
2018-01-26T03:57:50.790Z,86.9
2018-01-26T03:58:53.291Z,86.9
2018-01-26T03:59:56.340Z,87
2018-01-26T04:00:58.847Z,87
2018-01-26T04:02:01.670Z,86.8
2018-01-26T04:03:04.160Z,86.7
2018-01-26T04:04:06.658Z,86.6
2018-01-26T04:05:09.158Z,86.7
2018-01-26T04:06:11.651Z,86.9
2018-01-26T04:07:14.157Z,87
2018-01-26T04:08:16.643Z,87
2018-01-26T04:09:19.142Z,87.1
2018-01-26T04:10:21.654Z,87.2
2018-01-26T04:11:24.147Z,87.3
2018-01-26T04:12:26.637Z,87.2
2018-01-26T04:13:29.132Z,87.2
2018-01-26T04:14:31.624Z,87.3
2018-01-26T04:15:34.124Z,87.1
2018-01-26T04:16:36.622Z,87.1
2018-01-26T04:17:39.101Z,87.2
2018-01-26T04:18:41.606Z,87.3
2018-01-26T04:19:44.386Z,87.3
2018-01-26T04:20:46.886Z,87.1
2018-01-26T04:21:49.383Z,87.2
2018-01-26T04:22:51.888Z,87.2
2018-01-26T04:23:54.388Z,87.3
2018-01-26T04:24:56.867Z,87.3
2018-01-26T04:25:59.651Z,87.6
2018-01-26T04:27:02.156Z,87.5
2018-01-26T04:28:04.648Z,87.5
2018-01-26T04:29:07.146Z,87.4
2018-01-26T04:30:09.636Z,87.5
2018-01-26T04:31:12.129Z,87.4
2018-01-26T04:32:14.637Z,87.4
2018-01-26T04:33:17.711Z,87.3
2018-01-26T04:34:20.482Z,87.4
2018-01-26T04:35:22.986Z,87.3
2018-01-26T04:36:25.493Z,87.2
2018-01-26T04:37:27.981Z,87.1
2018-01-26T04:38:30.486Z,87.1
2018-01-26T04:39:32.979Z,87
2018-01-26T04:40:35.476Z,86.8
2018-01-26T04:41:37.981Z,86.8
2018-01-26T04:42:40.470Z,86.8
2018-01-26T04:43:42.971Z,86.7
2018-01-26T04:44:45.473Z,86.7
2018-01-26T04:45:47.965Z,86.7
2018-01-26T04:46:50.474Z,86.7
2018-01-26T04:47:52.972Z,86.7
2018-01-26T04:48:55.461Z,86.7
2018-01-26T04:49:57.957Z,86.7
2018-01-26T04:51:00.747Z,86.6
2018-01-26T04:52:03.244Z,86.6
2018-01-26T04:53:05.744Z,86.5
2018-01-26T04:54:08.229Z,86.4
2018-01-26T04:55:10.725Z,86.4
2018-01-26T04:56:13.206Z,86.3
2018-01-26T04:57:15.694Z,86.2
2018-01-26T04:58:18.504Z,86.3
2018-01-26T04:59:20.999Z,86.2
2018-01-26T05:00:23.487Z,86.2
2018-01-26T05:01:25.998Z,86.3
2018-01-26T05:02:28.488Z,86.3
2018-01-26T05:03:31.277Z,86.3
2018-01-26T05:04:33.773Z,86.4
2018-01-26T05:05:36.261Z,86.3
2018-01-26T05:06:38.766Z,86.4
2018-01-26T05:07:41.270Z,86.4
2018-01-26T05:08:43.752Z,86.5
2018-01-26T05:09:46.265Z,86.5
2018-01-26T05:10:48.758Z,86.5
2018-01-26T05:11:51.251Z,86.5
2018-01-26T05:12:53.752Z,86.6
2018-01-26T05:13:56.241Z,86.6
2018-01-26T05:14:58.740Z,86.4
2018-01-26T05:16:01.244Z,86.4
2018-01-26T05:17:03.719Z,86.4
2018-01-26T05:18:06.220Z,86.2
2018-01-26T05:19:08.720Z,86.2
2018-01-26T05:20:11.215Z,86.1
2018-01-26T05:21:13.990Z,86.1
2018-01-26T05:22:16.502Z,86.1
2018-01-26T05:23:18.993Z,86.2
2018-01-26T05:24:21.481Z,86.1
2018-01-26T05:25:23.981Z,86
2018-01-26T05:26:26.474Z,86.2
2018-01-26T05:27:28.969Z,86.2
2018-01-26T05:28:31.764Z,86.3
2018-01-26T05:29:34.251Z,86.2
2018-01-26T05:30:36.754Z,86.4
2018-01-26T05:31:39.250Z,86.4
2018-01-26T05:32:41.756Z,86.4
2018-01-26T05:33:44.243Z,86.4
2018-01-26T05:34:46.740Z,86.3
2018-01-26T05:35:49.243Z,86.3
2018-01-26T05:36:51.746Z,86.2
2018-01-26T05:37:54.242Z,86.1
2018-01-26T05:38:56.740Z,86
2018-01-26T05:39:59.227Z,86.2
2018-01-26T05:41:01.739Z,86.2
2018-01-26T05:42:04.237Z,86.1
2018-01-26T05:43:06.727Z,86.1
2018-01-26T05:44:09.216Z,86.1
2018-01-26T05:45:11.716Z,86.2
2018-01-26T05:46:14.207Z,86.3
2018-01-26T05:47:16.707Z,86.2
2018-01-26T05:48:19.195Z,86.2
2018-01-26T05:49:21.687Z,86.2
2018-01-26T05:50:24.201Z,86.3
2018-01-26T05:51:26.689Z,86.1
2018-01-26T05:52:29.187Z,86.1
2018-01-26T05:53:31.967Z,86.2
2018-01-26T05:54:34.746Z,86.3
2018-01-26T05:55:37.258Z,86.3
2018-01-26T05:56:39.749Z,86.4
2018-01-26T05:57:42.540Z,86.4
2018-01-26T05:58:45.038Z,86.5
2018-01-26T05:59:47.532Z,86.4
2018-01-26T06:00:50.029Z,86.4
2018-01-26T06:01:52.520Z,86.4
2018-01-26T06:02:55.003Z,86.3
2018-01-26T06:03:57.502Z,86.2
2018-01-26T06:05:00.006Z,86.3
2018-01-26T06:06:02.489Z,86.2
2018-01-26T06:07:05.008Z,86.1
2018-01-26T06:08:07.501Z,86.1
2018-01-26T06:09:09.992Z,86.1
2018-01-26T06:10:12.489Z,86.1
2018-01-26T06:11:14.983Z,86
2018-01-26T06:12:17.478Z,85.9
2018-01-26T06:13:19.988Z,85.8
2018-01-26T06:14:22.473Z,85.8
2018-01-26T06:15:24.964Z,85.8
2018-01-26T06:16:27.473Z,85.8
2018-01-26T06:17:29.965Z,85.8
2018-01-26T06:18:32.448Z,85.8
2018-01-26T06:19:34.943Z,85.8
2018-01-26T06:20:37.445Z,85.8
2018-01-26T06:21:39.928Z,85.8
2018-01-26T06:22:42.430Z,85.8
2018-01-26T06:23:44.932Z,85.8
2018-01-26T06:24:47.429Z,85.8
2018-01-26T06:25:49.923Z,85.8
2018-01-26T06:26:52.424Z,85.8
2018-01-26T06:27:54.912Z,85.8
2018-01-26T06:28:57.421Z,85.8
2018-01-26T06:29:59.911Z,85.7
2018-01-26T06:31:02.392Z,85.8
2018-01-26T06:32:04.894Z,85.6
2018-01-26T06:33:07.675Z,85.5
2018-01-26T06:34:10.169Z,85.4
2018-01-26T06:35:12.665Z,85.5
2018-01-26T06:36:15.164Z,85.4
2018-01-26T06:37:17.660Z,85.3
2018-01-26T06:38:20.164Z,85.3
2018-01-26T06:39:22.656Z,85.2
2018-01-26T06:40:25.151Z,85.3
2018-01-26T06:41:27.641Z,85.3
2018-01-26T06:42:30.135Z,85.3
2018-01-26T06:43:32.631Z,85.4
2018-01-26T06:44:35.128Z,85.4
2018-01-26T06:45:37.621Z,85.4
2018-01-26T06:46:40.116Z,85.4
2018-01-26T06:47:42.609Z,85.3
2018-01-26T06:48:45.120Z,85.4
2018-01-26T06:49:47.609Z,85.5
2018-01-26T06:50:50.111Z,85.4
2018-01-26T06:51:52.623Z,85.5
2018-01-26T06:52:55.114Z,85.5
2018-01-26T06:53:57.611Z,85.5
2018-01-26T06:55:00.118Z,85.5
2018-01-26T06:56:02.617Z,85.6
2018-01-26T06:57:05.107Z,85.6
2018-01-26T06:58:07.600Z,85.6
2018-01-26T06:59:10.092Z,85.4
2018-01-26T07:00:12.587Z,85.5
2018-01-26T07:01:15.096Z,85.5
2018-01-26T07:02:17.569Z,85.4
2018-01-26T07:03:20.060Z,85.5
2018-01-26T07:04:22.570Z,85.4
2018-01-26T07:05:25.054Z,85.5
2018-01-26T07:06:27.560Z,85.3
2018-01-26T07:07:30.053Z,85.4
2018-01-26T07:08:32.554Z,85.4
2018-01-26T07:09:35.050Z,85.3
2018-01-26T07:10:37.549Z,85.3
2018-01-26T07:11:40.040Z,85.3
2018-01-26T07:12:42.547Z,85.5
2018-01-26T07:13:45.029Z,85.6
2018-01-26T07:14:47.528Z,85.5
2018-01-26T07:15:50.028Z,85.7
2018-01-26T07:16:52.522Z,85.7
2018-01-26T07:17:55.022Z,85.7
2018-01-26T07:18:57.527Z,85.7
2018-01-26T07:20:00.033Z,85.7
2018-01-26T07:21:02.822Z,85.7
2018-01-26T07:22:05.315Z,85.6
2018-01-26T07:23:07.818Z,85.6
2018-01-26T07:24:10.308Z,85.7
2018-01-26T07:25:12.816Z,85.6
2018-01-26T07:26:15.310Z,85.7
2018-01-26T07:27:17.796Z,85.7
2018-01-26T07:28:20.296Z,85.6
2018-01-26T07:29:22.797Z,85.4
2018-01-26T07:30:25.292Z,85.4
2018-01-26T07:31:28.156Z,85.4
2018-01-26T07:32:30.600Z,85.4
2018-01-26T07:33:33.094Z,85.3
2018-01-26T07:34:35.592Z,85.2
2018-01-26T07:35:38.089Z,85.3
2018-01-26T07:36:40.635Z,85.3
2018-01-26T07:37:43.096Z,85.5
2018-01-26T07:38:45.590Z,85.6
2018-01-26T07:39:48.081Z,85.7
2018-01-26T07:40:50.597Z,85.8
2018-01-26T07:41:53.385Z,85.7
2018-01-26T07:42:56.169Z,85.9
2018-01-26T07:43:58.668Z,85.7
2018-01-26T07:45:01.455Z,85.8
2018-01-26T07:46:03.954Z,85.8
2018-01-26T07:47:06.465Z,85.8
2018-01-26T07:48:08.962Z,85.9
2018-01-26T07:49:11.450Z,85.8
2018-01-26T07:50:14.235Z,85.8
2018-01-26T07:51:16.733Z,85.9
2018-01-26T07:52:19.504Z,85.9
2018-01-26T07:53:22.001Z,86
2018-01-26T07:54:24.510Z,86
2018-01-26T07:55:27.020Z,86
2018-01-26T07:56:29.793Z,86
2018-01-26T07:57:32.289Z,86
2018-01-26T07:58:35.073Z,86.1
2018-01-26T07:59:37.580Z,86.1
2018-01-26T08:00:40.070Z,86.1
2018-01-26T08:01:42.551Z,86
2018-01-26T08:02:45.056Z,85.9
2018-01-26T08:03:47.545Z,86
2018-01-26T08:04:50.036Z,86
2018-01-26T08:05:52.539Z,86.1
2018-01-26T08:06:55.035Z,86.1
2018-01-26T08:07:57.532Z,86.1
2018-01-26T08:09:00.027Z,86.2
2018-01-26T08:10:02.821Z,86.2
2018-01-26T08:11:05.614Z,86.2
2018-01-26T08:12:08.117Z,86.2
2018-01-26T08:13:10.616Z,86.2
2018-01-26T08:14:13.100Z,86.2
2018-01-26T08:15:15.593Z,86.3
2018-01-26T08:16:18.107Z,86.3
2018-01-26T08:17:20.598Z,86.1
2018-01-26T08:18:23.096Z,86.1
2018-01-26T08:19:25.892Z,86.2
2018-01-26T08:20:28.383Z,86.5
2018-01-26T08:21:30.885Z,86.7
2018-01-26T08:22:33.378Z,86.7
2018-01-26T08:23:35.877Z,86.9
2018-01-26T08:24:38.372Z,86.9
2018-01-26T08:25:40.883Z,87
2018-01-26T08:26:43.361Z,87.1
2018-01-26T08:27:46.157Z,87.1
2018-01-26T08:28:48.648Z,87.1
2018-01-26T08:29:51.140Z,87.3
2018-01-26T08:30:53.638Z,87.4
2018-01-26T08:31:56.137Z,87.6
2018-01-26T08:32:58.619Z,87.6
2018-01-26T08:34:01.126Z,87.6
2018-01-26T08:35:03.902Z,87.4
2018-01-26T08:36:06.402Z,87.5
2018-01-26T08:37:08.915Z,87.5
2018-01-26T08:38:11.408Z,87.6
2018-01-26T08:39:13.901Z,87.7
2018-01-26T08:40:16.401Z,87.7
2018-01-26T08:41:18.896Z,87.9
2018-01-26T08:42:21.709Z,87.8
2018-01-26T08:43:24.208Z,87.9
2018-01-26T08:44:26.684Z,87.9
2018-01-26T08:45:29.184Z,87.8
2018-01-26T08:46:31.677Z,87.6
2018-01-26T08:47:34.177Z,87.6
2018-01-26T08:48:36.667Z,87.8
2018-01-26T08:49:39.168Z,88
2018-01-26T08:50:41.664Z,88.2
2018-01-26T08:51:44.152Z,88.2
2018-01-26T08:52:46.643Z,88.2
2018-01-26T08:53:49.143Z,88.2
2018-01-26T08:54:51.633Z,88.3
2018-01-26T08:55:54.136Z,88.4
2018-01-26T08:56:56.625Z,88.4
2018-01-26T08:57:59.130Z,88.3
2018-01-26T08:59:01.914Z,88.4
2018-01-26T09:00:04.424Z,88.7
2018-01-26T09:01:06.905Z,88.8
2018-01-26T09:02:09.721Z,88.9
2018-01-26T09:03:12.223Z,89
2018-01-26T09:04:14.713Z,89.2
2018-01-26T09:05:17.205Z,89.3
2018-01-26T09:06:19.696Z,89.1
2018-01-26T09:07:22.190Z,89
2018-01-26T09:08:24.696Z,89.1
2018-01-26T09:09:27.191Z,89.1
2018-01-26T09:10:29.967Z,89.1
2018-01-26T09:11:32.478Z,89.1
2018-01-26T09:12:34.978Z,89.1
2018-01-26T09:13:37.788Z,89
2018-01-26T09:14:40.283Z,89
2018-01-26T09:15:42.777Z,89
2018-01-26T09:16:45.269Z,89
2018-01-26T09:17:47.784Z,89
2018-01-26T09:18:50.274Z,88.9
2018-01-26T09:19:52.772Z,89
2018-01-26T09:20:55.269Z,89.1
2018-01-26T09:21:57.778Z,89.2
2018-01-26T09:23:00.266Z,89.2
2018-01-26T09:24:02.755Z,89.1
2018-01-26T09:25:05.273Z,89
2018-01-26T09:26:07.763Z,88.9
2018-01-26T09:27:10.258Z,89
2018-01-26T09:28:12.759Z,89.1
2018-01-26T09:29:15.538Z,89.2
2018-01-26T09:30:18.041Z,89.1
2018-01-26T09:31:20.541Z,89.3
2018-01-26T09:32:23.027Z,89.4
2018-01-26T09:33:25.575Z,89.3
2018-01-26T09:34:28.026Z,89.4
2018-01-26T09:35:30.516Z,89.3
2018-01-26T09:36:33.020Z,89.4
2018-01-26T09:37:35.510Z,89.2
2018-01-26T09:38:38.302Z,89.1
2018-01-26T09:39:41.093Z,89
2018-01-26T09:40:43.585Z,88.8
2018-01-26T09:41:46.084Z,88.8
2018-01-26T09:42:48.595Z,88.4
2018-01-26T09:43:51.063Z,88.2
2018-01-26T09:44:53.559Z,88.2
2018-01-26T09:45:56.356Z,88.3
2018-01-26T09:46:58.853Z,88.6
2018-01-26T09:48:01.354Z,88.7
2018-01-26T09:49:04.128Z,88.7
2018-01-26T09:50:06.622Z,88.7
2018-01-26T09:51:09.132Z,88.7
2018-01-26T09:52:11.620Z,88.8
2018-01-26T09:53:14.113Z,88.8
2018-01-26T09:54:16.614Z,88.9
2018-01-26T09:55:19.685Z,88.9
2018-01-26T09:56:22.188Z,88.9
2018-01-26T09:57:24.688Z,88.9
2018-01-26T09:58:27.164Z,88.9
2018-01-26T09:59:29.664Z,88.9
2018-01-26T10:00:32.164Z,88.8
2018-01-26T10:01:34.658Z,88.9
2018-01-26T10:02:37.160Z,89.3
2018-01-26T10:03:39.659Z,89.4
2018-01-26T10:04:42.158Z,89.4
2018-01-26T10:05:44.657Z,89.4
2018-01-26T10:06:47.146Z,89.4
2018-01-26T10:07:49.640Z,89.7
2018-01-26T10:08:52.729Z,89.6
2018-01-26T10:09:55.537Z,89.7
2018-01-26T10:10:58.038Z,89.9
2018-01-26T10:12:00.537Z,89.9
2018-01-26T10:13:03.031Z,89.8
2018-01-26T10:14:05.557Z,89.7
2018-01-26T10:15:08.096Z,89.7
2018-01-26T10:16:10.599Z,89.4
2018-01-26T10:17:13.082Z,89.4
2018-01-26T10:18:15.573Z,89.2
2018-01-26T10:19:18.656Z,89.1
2018-01-26T10:20:21.432Z,89
2018-01-26T10:21:24.215Z,89
2018-01-26T10:22:26.998Z,88.9
2018-01-26T10:23:29.489Z,88.8
2018-01-26T10:24:31.991Z,88.8
2018-01-26T10:25:34.487Z,88.9
2018-01-26T10:26:36.985Z,89
2018-01-26T10:27:39.770Z,88.9
2018-01-26T10:28:42.270Z,88.8
2018-01-26T10:29:44.858Z,88.8
2018-01-26T10:30:47.735Z,89
2018-01-26T10:31:50.320Z,89.1
2018-01-26T10:32:53.222Z,89.3
2018-01-26T10:33:55.946Z,89.3
2018-01-26T10:34:58.902Z,89.4
2018-01-26T10:36:01.546Z,89.3
2018-01-26T10:37:04.078Z,89.3
2018-01-26T10:38:06.770Z,89.2
2018-01-26T10:39:09.227Z,89.4
2018-01-26T10:40:11.738Z,89.3
2018-01-26T10:41:14.227Z,89.3
2018-01-26T10:42:17.295Z,89.3
2018-01-26T10:43:19.810Z,89.4
2018-01-26T10:44:22.303Z,89.4
2018-01-26T10:45:24.800Z,89.3
2018-01-26T10:46:27.879Z,89.3
2018-01-26T10:47:30.370Z,89.3
2018-01-26T10:48:32.874Z,89.4
2018-01-26T10:49:35.365Z,89.4
2018-01-26T10:50:37.870Z,89.3
2018-01-26T10:51:40.374Z,89.3
2018-01-26T10:52:42.870Z,89.4
2018-01-26T10:53:45.664Z,89.5
2018-01-26T10:54:48.166Z,89.4
2018-01-26T10:55:50.659Z,89.4
2018-01-26T10:56:53.452Z,89.4
2018-01-26T10:57:56.227Z,89.4
2018-01-26T10:58:58.735Z,89.4
2018-01-26T11:00:01.514Z,89.4
2018-01-26T11:01:04.029Z,89.3
2018-01-26T11:02:06.533Z,89.2
2018-01-26T11:03:09.033Z,89.2
2018-01-26T11:04:11.529Z,89.3
2018-01-26T11:05:14.045Z,89.4
2018-01-26T11:06:16.545Z,89.4
2018-01-26T11:07:19.026Z,89.5
2018-01-26T11:08:21.818Z,89.7
2018-01-26T11:09:24.322Z,89.7
2018-01-26T11:10:26.827Z,89.8
2018-01-26T11:11:29.608Z,89.9
2018-01-26T11:12:32.092Z,90
2018-01-26T11:13:34.882Z,90
2018-01-26T11:14:37.682Z,90
2018-01-26T11:15:40.503Z,90
2018-01-26T11:16:43.279Z,89.9
2018-01-26T11:17:45.777Z,89.9
2018-01-26T11:18:48.276Z,90
2018-01-26T11:19:50.775Z,89.8
2018-01-26T11:20:53.269Z,89.7
2018-01-26T11:21:55.782Z,89.7
2018-01-26T11:22:58.279Z,89.7
2018-01-26T11:24:00.774Z,89.8
2018-01-26T11:25:03.279Z,90
2018-01-26T11:26:05.783Z,89.8
2018-01-26T11:27:08.575Z,89.6
2018-01-26T11:28:11.081Z,89.5
2018-01-26T11:29:13.565Z,89.7
2018-01-26T11:30:16.070Z,89.6
2018-01-26T11:31:18.871Z,89.9
2018-01-26T11:32:21.356Z,90
2018-01-26T11:33:24.175Z,90
2018-01-26T11:34:26.671Z,89.8
2018-01-26T11:35:29.177Z,89.5
2018-01-26T11:36:31.674Z,89.4
2018-01-26T11:37:34.181Z,89.4
2018-01-26T11:38:36.959Z,89.1
2018-01-26T11:39:39.767Z,89.2
2018-01-26T11:40:42.250Z,89.4
2018-01-26T11:41:44.752Z,89.3
2018-01-26T11:42:47.255Z,89.6
2018-01-26T11:43:49.755Z,89.7
2018-01-26T11:44:52.255Z,89.7
2018-01-26T11:45:54.764Z,89.8
2018-01-26T11:46:57.259Z,89.4
2018-01-26T11:47:59.765Z,89.3
2018-01-26T11:49:02.257Z,89.5
2018-01-26T11:50:05.055Z,89.5
2018-01-26T11:51:07.547Z,89.7
2018-01-26T11:52:10.041Z,89.7
2018-01-26T11:53:12.540Z,89.6
2018-01-26T11:54:15.036Z,88.9
2018-01-26T11:55:17.540Z,88.9
2018-01-26T11:56:20.056Z,89.1
2018-01-26T11:57:22.534Z,89.3
2018-01-26T11:58:25.036Z,89.3
2018-01-26T11:59:27.833Z,89.7
2018-01-26T12:00:30.332Z,89.7
2018-01-26T12:01:32.827Z,90
2018-01-26T12:02:35.329Z,90
2018-01-26T12:03:37.818Z,90
2018-01-26T12:04:40.330Z,90
2018-01-26T12:05:42.824Z,89.9
2018-01-26T12:06:45.327Z,89.8
2018-01-26T12:07:47.827Z,90
2018-01-26T12:08:50.326Z,89.9
2018-01-26T12:09:52.827Z,89.9
2018-01-26T12:10:55.635Z,90
2018-01-26T12:11:58.127Z,89.9
2018-01-26T12:13:00.628Z,89.6
2018-01-26T12:14:03.145Z,89.7
2018-01-26T12:15:05.730Z,89.6
2018-01-26T12:16:08.518Z,89.7
2018-01-26T12:17:11.029Z,89.7
2018-01-26T12:18:13.527Z,89.8
2018-01-26T12:19:16.313Z,89.7
2018-01-26T12:20:18.808Z,89.7
2018-01-26T12:21:21.319Z,89.4
2018-01-26T12:22:23.823Z,89.3
2018-01-26T12:23:26.309Z,89.3
2018-01-26T12:24:28.811Z,89.3
2018-01-26T12:25:31.314Z,89.3
2018-01-26T12:26:33.811Z,89.2
2018-01-26T12:27:36.319Z,89.2
2018-01-26T12:28:38.813Z,89.2
2018-01-26T12:29:41.304Z,89.1
2018-01-26T12:30:43.825Z,89.1
2018-01-26T12:31:46.321Z,89.2
2018-01-26T12:32:49.106Z,89.3
2018-01-26T12:33:51.609Z,89.2
2018-01-26T12:34:54.101Z,89.2
2018-01-26T12:35:56.618Z,89.2
2018-01-26T12:36:59.120Z,89.4
2018-01-26T12:38:01.608Z,89.4
2018-01-26T12:39:04.114Z,89.3
2018-01-26T12:40:06.608Z,89.3
2018-01-26T12:41:09.113Z,89.4
2018-01-26T12:42:11.617Z,89.5
2018-01-26T12:43:14.111Z,89.4
2018-01-26T12:44:16.616Z,89.4
2018-01-26T12:45:19.130Z,89.4
2018-01-26T12:46:22.209Z,89.3
2018-01-26T12:47:24.693Z,89.3
2018-01-26T12:48:27.190Z,89.3
2018-01-26T12:49:29.693Z,89.2
2018-01-26T12:50:32.191Z,89.2
2018-01-26T12:51:34.689Z,89
2018-01-26T12:52:37.489Z,88.8
2018-01-26T12:53:40.269Z,88.8
2018-01-26T12:54:42.783Z,88.8
2018-01-26T12:55:45.281Z,88.8
2018-01-26T12:56:47.767Z,88.6
2018-01-26T12:57:50.268Z,88.6
2018-01-26T12:58:52.761Z,88.5
2018-01-26T12:59:55.259Z,88.6
2018-01-26T13:00:57.772Z,88.8
2018-01-26T13:02:00.248Z,88.8
2018-01-26T13:03:02.747Z,88.8
2018-01-26T13:04:05.254Z,88.9
2018-01-26T13:05:07.751Z,89
2018-01-26T13:06:10.254Z,88.9
2018-01-26T13:07:12.749Z,88.8
2018-01-26T13:08:15.580Z,88.8
2018-01-26T13:09:18.334Z,88.8
2018-01-26T13:10:20.842Z,88.8
2018-01-26T13:11:23.329Z,88.7
2018-01-26T13:12:25.837Z,88.7
2018-01-26T13:13:28.337Z,88.8
2018-01-26T13:14:30.832Z,88.6
2018-01-26T13:15:33.335Z,88.3
2018-01-26T13:16:36.136Z,88.5
2018-01-26T13:17:38.635Z,88.6
2018-01-26T13:18:41.411Z,88.7
2018-01-26T13:19:43.917Z,88.8
2018-01-26T13:20:47.040Z,88.9
2018-01-26T13:21:49.510Z,89
2018-01-26T13:22:52.012Z,89.2
2018-01-26T13:23:54.508Z,89.2
2018-01-26T13:24:57.007Z,89
2018-01-26T13:25:59.516Z,88.9
2018-01-26T13:27:02.016Z,88.9
2018-01-26T13:28:04.496Z,89
2018-01-26T13:29:06.993Z,89.1
2018-01-26T13:30:09.488Z,89.1
2018-01-26T13:31:12.576Z,89
2018-01-26T13:32:15.356Z,89
2018-01-26T13:33:17.846Z,89.1
2018-01-26T13:34:20.389Z,89
2018-01-26T13:35:22.914Z,89.1
2018-01-26T13:36:25.689Z,89.1
2018-01-26T13:37:28.183Z,89.1
2018-01-26T13:38:30.980Z,89
2018-01-26T13:39:33.477Z,89
2018-01-26T13:40:35.980Z,89
2018-01-26T13:41:38.779Z,89.2
2018-01-26T13:42:41.263Z,89.1
2018-01-26T13:43:44.056Z,88.9
2018-01-26T13:44:46.551Z,88.9
2018-01-26T13:45:49.039Z,89
2018-01-26T13:46:51.551Z,88.9
2018-01-26T13:47:54.048Z,89.1
2018-01-26T13:48:56.843Z,89
2018-01-26T13:49:59.365Z,88.9
2018-01-26T13:51:01.836Z,89
2018-01-26T13:52:04.331Z,89
2018-01-26T13:53:07.146Z,89.3
2018-01-26T13:54:09.917Z,89.4
2018-01-26T13:55:12.724Z,89.4
2018-01-26T13:56:15.515Z,89.4
2018-01-26T13:57:18.014Z,89.4
2018-01-26T13:58:20.516Z,89.3